Lynchburg Regional Preston Glenn Field
KLYH : now visible

Airfield :











YOU CAN JOIN US ON...

 
LOGIN :

Register | Disclaimer

   EN    FR    IT 

 









Legend :    VFR   Marginal VFR   IFR   Intensive IFR   Very Intensive IFR
Visi :
Ceiling :
>= 8 km
>= 3000ft
5 to 8 km
1000 to 3000 ft
1500m to 5 km
500 to 1000 ft
800 to 1500m
200 to 500 ft
< 800m
< 200 ft
Symbols :   Thunderstorms  Fog  Heavy snow  Heavy precipitations  Wind > 20 kt






- Airport Elevation : 938 ft
- IATA code : LYH


KLYH - Lynchburg Regional Preston Glenn Field

CURRENT METAR :
  • 130454Z AUTO 00000KT 10SM SCT025 BKN041 M02/M06 A3050 RMK AO2 SLP335 T10221056 400501061

EXPIRED METARs :
  • 130354Z AUTO 00000KT 10SM CLR M02/M07 A3052 RMK AO2 SLP341 T10171067
  • 130254Z 07003KT 10SM CLR M02/M07 A3053 RMK AO2 SLP345 T10171067 56012

TAF KLYH
Valid from the 13 at 00:00 until the 14 at 00:00 UTC


122321Z 1300/1324 05003KT P6SM BKN250
FM130700 VRB03KT P6SM OVC030
FM131000 VRB03KT 4SM -FZRA BR OVC015
FM131400 VRB03KT 3SM -RA BR OVC006
FM131900 03004KT 3SM -RA BR OVC003



MET'MAP, your aeronautical weather chart ! - Copyright ORBIFLY December 2007 - Disclaimer

ORBIFLY MET'MAP TEAM :

Programming & Development : Alexandra Zaïnal
Concept & original design : Baudouin d'Aumeries
Assistance for programming : Marc-Olivier Méhu
Technical & hardware support : Manuel Goepfert

Contact : metmap@orbifly.com




SOURCES & CREDITS :

   NOAA       Earth
Advisory